Update: 15-Jun-2021 15:59Z
36°C
WEATHER FORECAST DUBAI WORLD CENTRAL
 
Tuesday, June 15, 2021 (16:00 UTC) 16
Al Maktoum International Airport
Last Updated: 15-Jun-2021 (15:59Z)
Wind Dir/Speed: WSW at 08 kt
Temperature: 35.6°C
Rel. Humidity: 25 %
Pressure: 997.2 hPa
Visibility: 9000 m
  • METAR OMDW 151600Z 26009KT CAVOK 36/12 Q0997 NOSIG
DWC AIRPORT 5 DAY OUTLOOK:

DWC AIRPORT WEATHER FORECAST FOR 30 HOUR:
DWC TAF:
TAF OMDW 151100Z 1512/1618 30014KT 5000 DU NSC
 BECMG 1515/1517 18005KT 8000 NSW
 BECMG 1606/1608 32010KT=
VALID FROM:
2021-06-15 12:00Z
VALID TILL:
2021-06-16 18:00Z
SURFACE WIND:
NW'LY 14KT

BECOMING S'LY 05KT FROM 1600Z-1800Z TODAY

BECOMING NW'LY 10KT FROM 0600Z-0800Z WEDNESDAY.
VISIBILITY:
3000-5000 M,
BECOMING 07-10 KM FROM 1500Z-1700Z TODAY.
WEATHER:
SLIGHTLY DUSTY,
BECOMING FINE FROM 1500Z-1700Z TODAY.
CLOUD:
NIL SIGNIFICANT.
TEMPERATURE:
MIN TEMPERATURE 28°C AROUND 0130Z WEDNESDAY

MAX TEMPERATURE 41°C AROUND 0730Z WEDNESDAY.
HUMIDITY:
MAX HUMIDITY 80% AROUND 0130Z WEDNESDAY

MIN HUMIDITY 20% AROUND 0730Z WEDNESDAY.
WIND SHEAR:
NIL SIGNIFICANT.
TEMPERATURE INVERSION:
RISK OF AN 08-10°C SURFACE TEMPERATURE INVERSION BETWEEN 2000Z TODAY AND 0330Z WEDNESDAY.
COMMENTS:
NIL.